createdAt,value
2022-10-22T00:01:52.345Z,99979.22
2022-10-22T00:04:19.057Z,99969.00
2022-10-22T00:06:45.514Z,99960.94
2022-10-22T00:09:15.596Z,99954.94
2022-10-22T00:11:42.717Z,99947.13
2022-10-22T00:14:09.479Z,99955.34
2022-10-22T00:16:35.916Z,99964.63
2022-10-22T00:19:22.552Z,99978.91
2022-10-22T00:22:10.099Z,99978.16
2022-10-22T00:24:56.449Z,99981.63
2022-10-22T00:27:43.165Z,99988.78
2022-10-22T00:30:29.868Z,99995.94
2022-10-22T00:33:16.293Z,99987.84
2022-10-22T00:35:44.104Z,99990.78
2022-10-22T00:38:10.497Z,99987.00
2022-10-22T00:40:37.086Z,99991.72
2022-10-22T00:43:04.573Z,99999.78
2022-10-22T00:45:31.201Z,100007.41
2022-10-22T00:48:02.142Z,100013.59
2022-10-22T00:50:57.195Z,100013.88
2022-10-22T00:53:31.861Z,100014.25
2022-10-22T00:55:58.508Z,100011.63
2022-10-22T00:58:31.443Z,100017.63
2022-10-22T01:00:59.551Z,100022.03
2022-10-22T01:03:26.196Z,100020.44
2022-10-22T01:05:58.459Z,100021.19
2022-10-22T01:08:49.270Z,100025.59
2022-10-22T01:11:25.772Z,100023.91
2022-10-22T01:14:23.839Z,100023.56
2022-10-22T01:17:05.522Z,100027.03
2022-10-22T01:20:24.779Z,100014.75
2022-10-22T01:23:38.937Z,100017.47
2022-10-22T01:26:18.902Z,100020.38
2022-10-22T01:28:59.282Z,100020.19
2022-10-22T01:31:30.754Z,100022.34
2022-10-22T01:34:02.496Z,100022.34
2022-10-22T01:36:31.975Z,100023.09
2022-10-22T01:39:01.866Z,100023.19
2022-10-22T01:41:29.554Z,100023.38
2022-10-22T01:43:56.225Z,100027.97
2022-10-22T01:46:24.912Z,100022.34
2022-10-22T01:49:16.667Z,100040.06
2022-10-22T01:52:05.601Z,100032.19
2022-10-22T01:54:49.423Z,100029.84
2022-10-22T01:57:41.503Z,100029.00
2022-10-22T02:00:10.621Z,100023.84
2022-10-22T02:02:56.521Z,100023.22
2022-10-22T02:05:29.773Z,100012.69
2022-10-22T02:08:03.004Z,100003.50
2022-10-22T02:10:30.472Z,100023.66
2022-10-22T02:13:02.732Z,100015.97
2022-10-22T02:15:33.292Z,100028.81
2022-10-22T02:18:03.049Z,100031.72
2022-10-22T02:20:32.668Z,100033.78
2022-10-22T02:23:00.458Z,100020.56
2022-10-22T02:25:32.773Z,100019.81
2022-10-22T02:28:14.722Z,100004.03
2022-10-22T02:30:45.495Z,100001.50
2022-10-22T02:33:18.566Z,100002.75
2022-10-22T02:35:46.354Z,100002.94
2022-10-22T02:38:13.871Z,99994.03
2022-10-22T02:40:41.554Z,99983.63
2022-10-22T02:43:08.040Z,99972.59
2022-10-22T02:45:35.485Z,99982.25
2022-10-22T02:48:02.580Z,99973.38
2022-10-22T02:50:29.262Z,99975.31
2022-10-22T02:52:55.739Z,99972.47
2022-10-22T02:55:22.860Z,99973.44
2022-10-22T02:57:49.281Z,99971.75
2022-10-22T03:00:16.215Z,99976.25
2022-10-22T03:02:42.611Z,99977.09
2022-10-22T03:05:09.394Z,99966.50
2022-10-22T03:07:36.357Z,99968.56
2022-10-22T03:10:03.467Z,99955.25
2022-10-22T03:12:30.115Z,99951.88
2022-10-22T03:14:56.733Z,99965.09
2022-10-22T03:17:23.483Z,99963.22
2022-10-22T03:19:50.313Z,99974.28
2022-10-22T03:22:27.399Z,99979.72
2022-10-22T03:24:58.249Z,99975.22
2022-10-22T03:27:27.203Z,99970.81
2022-10-22T03:29:54.326Z,99968.13
2022-10-22T03:32:20.999Z,99973.44
2022-10-22T03:34:47.449Z,99968.38
2022-10-22T03:37:14.429Z,99962.03
2022-10-22T03:39:41.108Z,99977.72
2022-10-22T03:42:08.583Z,99976.69
2022-10-22T03:44:38.423Z,99982.69
2022-10-22T03:47:05.223Z,99998.72
2022-10-22T03:49:31.787Z,100029.38
2022-10-22T03:52:01.021Z,100067.28
2022-10-22T03:54:27.469Z,100067.47
2022-10-22T03:56:54.610Z,100078.25
2022-10-22T03:59:20.990Z,100088.38
2022-10-22T04:01:47.831Z,100080.66
2022-10-22T04:04:14.445Z,100077.66
2022-10-22T04:06:41.078Z,100086.66
2022-10-22T04:09:08.290Z,100075.03
2022-10-22T04:11:34.795Z,100082.06
2022-10-22T04:14:01.533Z,100079.81
2022-10-22T04:16:32.822Z,100072.38
2022-10-22T04:19:02.717Z,100071.97
2022-10-22T04:21:29.356Z,100083.81
2022-10-22T04:23:56.520Z,100096.53
2022-10-22T04:26:23.677Z,100084.16
2022-10-22T04:28:51.851Z,100095.00
2022-10-22T04:31:21.659Z,100093.47
2022-10-22T04:33:51.836Z,100114.47
2022-10-22T04:36:19.405Z,100108.53
2022-10-22T04:38:48.138Z,100116.50
2022-10-22T04:41:18.607Z,100119.22
2022-10-22T04:43:46.253Z,100120.06
2022-10-22T04:46:14.003Z,100108.91
2022-10-22T04:48:42.483Z,100118.72
2022-10-22T04:51:12.057Z,100124.97
2022-10-22T04:53:40.386Z,100121.69
2022-10-22T04:56:22.071Z,100119.97
2022-10-22T04:58:50.632Z,100127.84
2022-10-22T05:01:23.099Z,100121.75
2022-10-22T05:03:51.624Z,100128.63
2022-10-22T05:06:20.580Z,100129.38
2022-10-22T05:08:48.340Z,100125.16
2022-10-22T05:11:18.064Z,100131.16
2022-10-22T05:13:44.448Z,100132.94
2022-10-22T05:16:11.871Z,100136.66
2022-10-22T05:18:40.714Z,100139.25
2022-10-22T05:21:13.291Z,100144.50
2022-10-22T05:23:40.256Z,100139.09
2022-10-22T05:26:09.069Z,100146.53
2022-10-22T05:28:36.732Z,100151.69
2022-10-22T05:31:03.946Z,100155.09
2022-10-22T05:33:32.369Z,100160.41
2022-10-22T05:35:59.999Z,100169.97
2022-10-22T05:38:27.448Z,100168.03
2022-10-22T05:41:03.237Z,100165.50
2022-10-22T05:43:29.988Z,100172.66
2022-10-22T05:46:01.428Z,100174.63
2022-10-22T05:48:27.864Z,100183.44
2022-10-22T05:50:55.075Z,100185.22
2022-10-22T05:53:22.119Z,100190.53
2022-10-22T05:55:48.484Z,100190.53
2022-10-22T05:58:15.497Z,100195.63
2022-10-22T06:00:42.129Z,100192.81
2022-10-22T06:03:08.489Z,100198.25
2022-10-22T06:05:36.422Z,100208.88
2022-10-22T06:08:04.279Z,100207.88
2022-10-22T06:10:31.349Z,100208.97
2022-10-22T06:12:57.773Z,100213.97
2022-10-22T06:15:24.786Z,100215.91
2022-10-22T06:17:51.361Z,100222.00
2022-10-22T06:20:18.257Z,100220.91
2022-10-22T06:22:44.695Z,100224.09
2022-10-22T06:25:12.448Z,100223.78
2022-10-22T06:27:38.854Z,100231.16
2022-10-22T06:30:05.758Z,100232.94
2022-10-22T06:32:32.404Z,100243.25
2022-10-22T06:34:58.812Z,100237.66
2022-10-22T06:37:25.488Z,100249.59
2022-10-22T06:39:51.882Z,100244.03
2022-10-22T06:42:18.519Z,100250.13
2022-10-22T06:44:47.806Z,100249.13
2022-10-22T06:47:14.314Z,100259.34
2022-10-22T06:49:40.820Z,100255.78
2022-10-22T06:52:07.199Z,100267.97
2022-10-22T06:54:33.674Z,100265.00
2022-10-22T06:57:00.402Z,100266.78
2022-10-22T06:59:26.819Z,100274.06
2022-10-22T07:01:53.691Z,100284.41
2022-10-22T07:04:20.048Z,100288.63
2022-10-22T07:06:46.725Z,100293.13
2022-10-22T07:09:13.252Z,100288.63
2022-10-22T07:11:45.802Z,100297.03
2022-10-22T07:14:13.517Z,100304.81
2022-10-22T07:16:42.998Z,100304.06
2022-10-22T07:19:09.726Z,100308.00
2022-10-22T07:21:36.448Z,100303.53
2022-10-22T07:24:03.252Z,100305.50
2022-10-22T07:26:32.405Z,100305.59
2022-10-22T07:29:00.697Z,100307.41
2022-10-22T07:31:27.681Z,100311.75
2022-10-22T07:33:54.218Z,100310.78
2022-10-22T07:36:20.753Z,100313.09
2022-10-22T07:38:52.790Z,100312.81
2022-10-22T07:41:19.582Z,100315.16
2022-10-22T07:43:46.193Z,100323.97
2022-10-22T07:46:12.594Z,100319.81
2022-10-22T07:48:39.312Z,100321.03
2022-10-22T07:51:06.671Z,100318.31
2022-10-22T07:53:33.765Z,100330.03
2022-10-22T07:56:01.074Z,100332.50
2022-10-22T07:58:27.498Z,100341.63
2022-10-22T08:01:01.064Z,100329.75
2022-10-22T08:03:29.098Z,100323.28
2022-10-22T08:05:56.380Z,100329.91
2022-10-22T08:08:27.069Z,100332.47
2022-10-22T08:10:59.121Z,100319.97
2022-10-22T08:13:26.231Z,100323.66
2022-10-22T08:15:56.573Z,100322.13
2022-10-22T08:18:25.556Z,100318.44
2022-10-22T08:20:52.753Z,100319.19
2022-10-22T08:23:21.209Z,100313.31
2022-10-22T08:25:51.189Z,100322.00
2022-10-22T08:28:21.158Z,100331.69
2022-10-22T08:30:49.183Z,100325.88
2022-10-22T08:33:15.830Z,100334.91
2022-10-22T08:35:42.256Z,100333.28
2022-10-22T08:38:09.172Z,100337.53
2022-10-22T08:40:39.754Z,100336.78
2022-10-22T08:43:13.144Z,100344.44
2022-10-22T08:45:45.249Z,100341.09
2022-10-22T08:48:54.890Z,100346.38
2022-10-22T08:51:25.584Z,100356.81
2022-10-22T08:54:08.749Z,100364.09
2022-10-22T08:56:37.058Z,100360.16
2022-10-22T08:59:37.817Z,100372.00
2022-10-22T09:02:20.199Z,100370.97
2022-10-22T09:04:58.365Z,100370.53
2022-10-22T09:07:24.969Z,100377.78
2022-10-22T09:09:53.776Z,100373.81
2022-10-22T09:12:28.682Z,100385.13
2022-10-22T09:14:55.203Z,100389.50
2022-10-22T09:17:35.804Z,100385.28
2022-10-22T09:20:45.252Z,100387.72
2022-10-22T09:23:41.213Z,100402.72
2022-10-22T09:26:15.575Z,100393.09
2022-10-22T09:28:43.181Z,100395.31
2022-10-22T09:31:14.314Z,100401.31
2022-10-22T09:33:43.007Z,100410.44
2022-10-22T09:36:16.976Z,100407.16
2022-10-22T09:38:52.407Z,100402.25
2022-10-22T09:41:29.704Z,100405.09
2022-10-22T09:43:56.624Z,100400.03
2022-10-22T09:46:27.256Z,100403.13
2022-10-22T09:49:12.304Z,100403.59
2022-10-22T09:51:48.408Z,100402.63
2022-10-22T09:54:18.827Z,100401.75
2022-10-22T09:56:52.624Z,100415.53
2022-10-22T09:59:26.831Z,100411.75
2022-10-22T10:02:08.515Z,100411.13
2022-10-22T10:04:53.617Z,100419.00
2022-10-22T10:07:26.326Z,100415.88
2022-10-22T10:09:53.910Z,100419.38
2022-10-22T10:12:39.387Z,100425.19
2022-10-22T10:15:11.742Z,100409.81
2022-10-22T10:18:16.030Z,100416.50
2022-10-22T10:20:56.310Z,100416.91
2022-10-22T10:23:44.269Z,100408.88
2022-10-22T10:26:17.551Z,100414.28
2022-10-22T10:28:51.619Z,100407.53
2022-10-22T10:31:32.043Z,100409.38
2022-10-22T10:34:46.676Z,100405.59
2022-10-22T10:37:17.310Z,100408.16
2022-10-22T10:39:52.938Z,100396.41
2022-10-22T10:42:49.525Z,100410.44
2022-10-22T10:45:44.691Z,100406.50
2022-10-22T10:48:34.281Z,100405.06
2022-10-22T10:51:21.336Z,100413.91
2022-10-22T10:53:55.563Z,100402.72
2022-10-22T10:56:41.358Z,100403.34
2022-10-22T10:59:26.073Z,100393.88
2022-10-22T11:01:59.749Z,100401.16
2022-10-22T11:04:38.976Z,100388.19
2022-10-22T11:07:16.867Z,100398.94
2022-10-22T11:09:59.982Z,100402.75
2022-10-22T11:12:43.002Z,100389.22
2022-10-22T11:15:31.985Z,100402.06
2022-10-22T11:18:11.350Z,100406.47
2022-10-22T11:21:05.897Z,100398.50
2022-10-22T11:23:48.116Z,100397.44
2022-10-22T11:26:27.082Z,100402.91
2022-10-22T11:28:54.777Z,100394.78
2022-10-22T11:31:24.771Z,100396.78
2022-10-22T11:34:04.834Z,100396.31
2022-10-22T11:36:38.713Z,100402.84
2022-10-22T11:39:05.379Z,100398.19
2022-10-22T11:41:34.383Z,100399.31
2022-10-22T11:44:07.366Z,100402.44
2022-10-22T11:46:46.841Z,100402.22
2022-10-22T11:49:13.402Z,100410.84
2022-10-22T11:51:42.225Z,100390.38
2022-10-22T11:54:30.279Z,100387.94
2022-10-22T11:57:14.861Z,100385.03
2022-10-22T11:59:48.808Z,100376.97
2022-10-22T12:02:27.564Z,100383.03
2022-10-22T12:05:22.541Z,100379.53
2022-10-22T12:07:57.026Z,100379.41
2022-10-22T12:10:33.996Z,100396.81
2022-10-22T12:13:25.528Z,100386.50
2022-10-22T12:15:57.009Z,100375.50
2022-10-22T12:18:32.760Z,100369.44
2022-10-22T12:20:59.842Z,100366.44
2022-10-22T12:23:34.047Z,100369.88
2022-10-22T12:26:01.067Z,100369.59
2022-10-22T12:28:27.699Z,100364.53
2022-10-22T12:30:54.094Z,100374.28
2022-10-22T12:33:23.384Z,100366.97
2022-10-22T12:35:53.219Z,100381.06
2022-10-22T12:38:22.626Z,100364.41
2022-10-22T12:40:51.286Z,100373.25
2022-10-22T12:43:23.777Z,100354.19
2022-10-22T12:45:51.063Z,100352.44
2022-10-22T12:48:22.078Z,100357.31
2022-10-22T12:50:52.574Z,100354.25
2022-10-22T12:53:22.404Z,100361.66
2022-10-22T12:55:52.618Z,100364.88
2022-10-22T12:58:22.791Z,100376.66
2022-10-22T13:00:57.475Z,100365.19
2022-10-22T13:03:32.171Z,100364.06
2022-10-22T13:06:21.763Z,100371.59
2022-10-22T13:09:05.853Z,100371.44
2022-10-22T13:11:38.227Z,100373.38
2022-10-22T13:14:15.660Z,100363.38
2022-10-22T13:16:42.092Z,100367.91
2022-10-22T13:19:45.880Z,100363.94
2022-10-22T13:22:52.879Z,100369.16
2022-10-22T13:25:23.695Z,100369.00
2022-10-22T13:28:01.504Z,100361.59
2022-10-22T13:30:37.090Z,100358.38
2022-10-22T13:33:26.665Z,100362.06
2022-10-22T13:35:54.703Z,100358.75
2022-10-22T13:38:24.817Z,100357.72
2022-10-22T13:40:51.929Z,100372.84
2022-10-22T13:43:19.544Z,100368.19
2022-10-22T13:45:48.874Z,100365.28
2022-10-22T13:48:18.986Z,100361.09
2022-10-22T13:50:46.618Z,100358.06
2022-10-22T13:53:19.419Z,100357.88
2022-10-22T13:55:46.536Z,100359.50
2022-10-22T13:58:18.820Z,100358.91
2022-10-22T14:00:51.479Z,100353.66
2022-10-22T14:03:21.285Z,100354.72
2022-10-22T14:05:48.785Z,100356.53
2022-10-22T14:08:18.957Z,100361.50
2022-10-22T14:10:46.196Z,100364.06
2022-10-22T14:13:14.801Z,100363.81
2022-10-22T14:15:42.361Z,100362.84
2022-10-22T14:18:13.029Z,100360.13
2022-10-22T14:20:42.190Z,100360.97
2022-10-22T14:23:15.044Z,100360.06
2022-10-22T14:25:42.211Z,100362.53
2022-10-22T14:28:11.242Z,100358.81
2022-10-22T14:30:38.945Z,100354.72
2022-10-22T14:33:16.093Z,100353.47
2022-10-22T14:35:42.828Z,100362.66
2022-10-22T14:38:10.614Z,100357.41
2022-10-22T14:40:40.214Z,100364.38
2022-10-22T14:43:07.273Z,100359.66
2022-10-22T14:45:33.645Z,100358.59
2022-10-22T14:48:02.075Z,100356.31
2022-10-22T14:50:28.507Z,100360.31
2022-10-22T14:52:57.532Z,100355.13
2022-10-22T14:55:26.063Z,100362.34
2022-10-22T14:57:53.496Z,100361.34
2022-10-22T15:00:20.817Z,100353.53
2022-10-22T15:02:48.431Z,100361.94
2022-10-22T15:05:17.244Z,100356.88
2022-10-22T15:07:45.176Z,100362.41
2022-10-22T15:10:12.192Z,100362.66
2022-10-22T15:12:38.686Z,100360.50
2022-10-22T15:15:06.111Z,100362.84
2022-10-22T15:17:32.503Z,100367.22
2022-10-22T15:20:05.349Z,100368.03
2022-10-22T15:22:35.483Z,100358.16
2022-10-22T15:25:07.834Z,100359.88
2022-10-22T15:27:34.253Z,100363.84
2022-10-22T15:30:04.584Z,100361.31
2022-10-22T15:32:33.449Z,100363.00
2022-10-22T15:35:03.159Z,100366.03
2022-10-22T15:37:30.736Z,100365.53
2022-10-22T15:39:57.598Z,100358.78
2022-10-22T15:42:24.674Z,100366.47
2022-10-22T15:44:58.127Z,100367.56
2022-10-22T15:47:29.520Z,100366.34
2022-10-22T15:49:57.159Z,100364.19
2022-10-22T15:52:24.096Z,100367.75
2022-10-22T15:54:50.895Z,100375.34
2022-10-22T15:57:17.627Z,100375.06
2022-10-22T15:59:44.200Z,100373.16
2022-10-22T16:02:11.422Z,100376.72
2022-10-22T16:04:39.080Z,100367.44
2022-10-22T16:07:05.828Z,100370.81
2022-10-22T16:09:33.003Z,100366.59
2022-10-22T16:11:59.423Z,100370.63
2022-10-22T16:14:28.806Z,100363.44
2022-10-22T16:16:56.553Z,100360.91
2022-10-22T16:19:24.687Z,100364.66
2022-10-22T16:21:54.143Z,100364.06
2022-10-22T16:24:21.858Z,100364.03
2022-10-22T16:26:48.954Z,100362.53
2022-10-22T16:29:15.518Z,100358.19
2022-10-22T16:31:43.532Z,100369.13
2022-10-22T16:34:10.561Z,100365.56
2022-10-22T16:36:38.723Z,100366.31
2022-10-22T16:39:06.163Z,100365.72
2022-10-22T16:41:36.541Z,100366.88
2022-10-22T16:44:04.765Z,100371.47
2022-10-22T16:46:32.239Z,100369.22
2022-10-22T16:49:00.864Z,100374.31
2022-10-22T16:51:28.455Z,100378.22
2022-10-22T16:53:56.988Z,100375.34
2022-10-22T16:56:25.433Z,100376.84
2022-10-22T16:58:54.918Z,100383.91
2022-10-22T17:01:24.189Z,100385.25
2022-10-22T17:03:50.949Z,100386.84
2022-10-22T17:06:17.344Z,100394.50
2022-10-22T17:08:43.999Z,100393.56
2022-10-22T17:11:12.998Z,100391.22
2022-10-22T17:13:43.689Z,100389.41
2022-10-22T17:16:13.299Z,100391.50
2022-10-22T17:18:40.823Z,100404.03
2022-10-22T17:21:09.666Z,100404.13
2022-10-22T17:23:36.704Z,100409.41
2022-10-22T17:26:08.593Z,100414.69
2022-10-22T17:28:36.596Z,100409.38
2022-10-22T17:31:10.829Z,100409.47
2022-10-22T17:33:37.871Z,100415.41
2022-10-22T17:36:12.944Z,100419.22
2022-10-22T17:38:41.496Z,100413.56
2022-10-22T17:41:17.599Z,100413.31
2022-10-22T17:46:18.716Z,100424.31
2022-10-22T17:48:49.323Z,100428.25
2022-10-22T17:51:17.029Z,100437.03
2022-10-22T17:53:46.051Z,100437.13
2022-10-22T17:56:15.975Z,100444.00
2022-10-22T17:58:44.783Z,100446.81
2022-10-22T18:01:35.738Z,100453.28
2022-10-22T18:04:04.960Z,100456.19
2022-10-22T18:06:32.785Z,100449.81
2022-10-22T18:08:59.782Z,100451.78
2022-10-22T18:11:27.777Z,100447.91
2022-10-22T18:13:56.602Z,100448.06
2022-10-22T18:16:23.576Z,100446.75
2022-10-22T18:18:55.382Z,100446.09
2022-10-22T18:21:23.786Z,100448.63
2022-10-22T18:23:50.492Z,100438.91
2022-10-22T18:26:19.316Z,100444.00
2022-10-22T18:28:50.979Z,100440.59
2022-10-22T18:31:22.993Z,100437.06
2022-10-22T18:33:49.988Z,100443.53
2022-10-22T18:36:19.343Z,100438.59
2022-10-22T18:39:02.815Z,100434.19
2022-10-22T18:41:30.842Z,100435.34
2022-10-22T18:44:00.247Z,100428.56
2022-10-22T18:46:28.888Z,100422.69
2022-10-22T18:48:56.759Z,100426.69
2022-10-22T18:51:25.264Z,100429.53
2022-10-22T18:54:05.389Z,100430.16
2022-10-22T18:56:41.066Z,100424.78
2022-10-22T18:59:16.548Z,100415.88
2022-10-22T19:01:43.210Z,100420.34
2022-10-22T19:04:09.670Z,100420.69
2022-10-22T19:06:37.082Z,100418.53
2022-10-22T19:09:04.739Z,100417.59
2022-10-22T19:11:32.205Z,100423.59
2022-10-22T19:13:58.559Z,100416.47
2022-10-22T19:16:27.029Z,100422.66
2022-10-22T19:19:00.120Z,100414.94
2022-10-22T19:21:26.928Z,100410.97
2022-10-22T19:23:57.542Z,100408.84
2022-10-22T19:26:26.336Z,100408.34
2022-10-22T19:28:53.923Z,100400.97
2022-10-22T19:31:22.680Z,100404.53
2022-10-22T19:33:50.442Z,100405.72
2022-10-22T19:36:19.312Z,100401.50
2022-10-22T19:38:48.528Z,100409.22
2022-10-22T19:41:21.108Z,100412.00
2022-10-22T19:43:49.999Z,100407.06
2022-10-22T19:46:17.476Z,100410.38
2022-10-22T19:51:19.691Z,100410.97
2022-10-22T19:53:47.387Z,100403.75
2022-10-22T19:56:18.042Z,100403.00
2022-10-22T19:58:44.856Z,100397.66
2022-10-22T20:01:13.334Z,100401.06
2022-10-22T20:03:40.531Z,100401.06
2022-10-22T20:06:09.409Z,100399.53
2022-10-22T20:08:37.913Z,100402.16
2022-10-22T20:11:06.843Z,100400.53
2022-10-22T20:13:34.793Z,100401.91
2022-10-22T20:16:01.635Z,100409.22
2022-10-22T20:18:28.503Z,100408.84
2022-10-22T20:20:55.115Z,100414.78
2022-10-22T20:23:21.714Z,100414.19
2022-10-22T20:25:48.160Z,100414.88
2022-10-22T20:28:14.631Z,100414.94
2022-10-22T20:30:45.159Z,100413.50
2022-10-22T20:33:14.771Z,100411.16
2022-10-22T20:35:42.351Z,100422.44
2022-10-22T20:38:13.372Z,100417.84
2022-10-22T20:40:40.052Z,100417.22
2022-10-22T20:43:09.495Z,100422.31
2022-10-22T20:45:38.184Z,100418.84
2022-10-22T20:48:05.121Z,100423.56
2022-10-22T20:50:32.087Z,100422.56
2022-10-22T20:52:59.464Z,100421.41
2022-10-22T20:55:27.279Z,100405.72
2022-10-22T20:57:53.938Z,100408.97
2022-10-22T21:00:20.460Z,100409.19
2022-10-22T21:02:46.892Z,100410.06
2022-10-22T21:05:13.576Z,100410.06
2022-10-22T21:07:40.493Z,100403.09
2022-10-22T21:10:08.053Z,100398.69
2022-10-22T21:12:34.545Z,100403.19
2022-10-22T21:15:01.362Z,100397.00
2022-10-22T21:17:27.746Z,100387.34
2022-10-22T21:19:54.296Z,100404.88
2022-10-22T21:22:20.678Z,100401.81
2022-10-22T21:24:48.143Z,100402.72
2022-10-22T21:27:14.544Z,100405.28
2022-10-22T21:29:40.963Z,100397.09
2022-10-22T21:32:07.408Z,100407.91
2022-10-22T21:34:38.189Z,100405.34
2022-10-22T21:37:05.606Z,100401.50
2022-10-22T21:39:32.294Z,100398.09
2022-10-22T21:41:58.754Z,100401.56
2022-10-22T21:44:25.349Z,100400.72
2022-10-22T21:46:51.787Z,100399.09
2022-10-22T21:49:18.735Z,100402.66
2022-10-22T21:51:45.131Z,100401.81
2022-10-22T21:54:12.970Z,100402.56
2022-10-22T21:56:39.828Z,100390.47
2022-10-22T21:59:07.118Z,100391.53
2022-10-22T22:01:34.233Z,100391.38
2022-10-22T22:04:01.256Z,100387.75
2022-10-22T22:06:33.058Z,100386.91
2022-10-22T22:09:00.875Z,100389.69
2022-10-22T22:11:28.488Z,100387.91
2022-10-22T22:13:56.261Z,100388.25
2022-10-22T22:16:28.269Z,100396.06
2022-10-22T22:19:01.573Z,100392.22
2022-10-22T22:21:29.672Z,100381.91
2022-10-22T22:23:57.356Z,100383.50
2022-10-22T22:26:28.716Z,100388.69
2022-10-22T22:28:58.068Z,100390.53
2022-10-22T22:31:29.483Z,100400.09
2022-10-22T22:34:03.933Z,100401.97
2022-10-22T22:36:39.567Z,100400.34
2022-10-22T22:39:08.584Z,100402.13
2022-10-22T22:41:35.226Z,100398.84
2022-10-22T22:44:01.742Z,100390.13
2022-10-22T22:46:28.475Z,100390.97
2022-10-22T22:48:55.233Z,100390.88
2022-10-22T22:51:21.840Z,100389.09
2022-10-22T22:53:48.259Z,100387.72
2022-10-22T22:56:20.107Z,100389.41
2022-10-22T22:58:47.701Z,100393.06
2022-10-22T23:01:22.063Z,100389.81
2022-10-22T23:03:56.981Z,100389.97
2022-10-22T23:06:25.907Z,100379.47
2022-10-22T23:08:54.167Z,100377.69
2022-10-22T23:11:22.454Z,100373.38
2022-10-22T23:13:52.794Z,100371.69
2022-10-22T23:16:22.226Z,100371.19
2022-10-22T23:18:49.770Z,100368.56
2022-10-22T23:21:19.698Z,100367.72
2022-10-22T23:23:52.743Z,100360.00
2022-10-22T23:26:25.817Z,100366.00
2022-10-22T23:28:52.823Z,100376.34
2022-10-22T23:31:20.287Z,100371.09
2022-10-22T23:33:47.579Z,100368.41
2022-10-22T23:36:14.505Z,100376.94
2022-10-22T23:38:41.959Z,100373.72
2022-10-22T23:41:09.254Z,100371.03
2022-10-22T23:43:37.897Z,100367.88
2022-10-22T23:46:05.792Z,100374.97
2022-10-22T23:48:32.780Z,100373.09
2022-10-22T23:51:05.342Z,100372.19
2022-10-22T23:53:32.153Z,100368.88
2022-10-22T23:56:03.644Z,100368.16
2022-10-22T23:58:30.311Z,100364.00
